sensor_id;sensor_type;location;lat;lon;timestamp;pressure;altitude;pressure_sealevel;temperature;humidity
73242;BME280;65659;49.234;-2.094;2023-07-31T00:00:34;100347.17;;;19.91;52.54
73242;BME280;65659;49.234;-2.094;2023-07-31T00:02:59;100349.40;;;19.77;52.51
73242;BME280;65659;49.234;-2.094;2023-07-31T00:05:25;100352.73;;;19.80;52.46
73242;BME280;65659;49.234;-2.094;2023-07-31T00:07:51;100347.72;;;19.76;52.48
73242;BME280;65659;49.234;-2.094;2023-07-31T00:10:16;100339.57;;;19.81;52.43
73242;BME280;65659;49.234;-2.094;2023-07-31T00:12:45;100338.87;;;19.78;52.68
73242;BME280;65659;49.234;-2.094;2023-07-31T00:15:08;100334.37;;;19.94;52.94
73242;BME280;65659;49.234;-2.094;2023-07-31T00:17:33;100338.89;;;19.80;53.27
73242;BME280;65659;49.234;-2.094;2023-07-31T00:19:58;100337.48;;;19.53;53.50
73242;BME280;65659;49.234;-2.094;2023-07-31T00:22:24;100340.48;;;19.84;53.98
73242;BME280;65659;49.234;-2.094;2023-07-31T00:24:49;100333.76;;;19.25;54.20
73242;BME280;65659;49.234;-2.094;2023-07-31T00:27:15;100333.92;;;19.49;54.36
73242;BME280;65659;49.234;-2.094;2023-07-31T00:29:40;100327.29;;;19.72;54.46
73242;BME280;65659;49.234;-2.094;2023-07-31T00:32:07;100325.09;;;19.62;54.66
73242;BME280;65659;49.234;-2.094;2023-07-31T00:34:32;100317.24;;;19.55;54.79
73242;BME280;65659;49.234;-2.094;2023-07-31T00:36:57;100312.55;;;19.11;54.74
73242;BME280;65659;49.234;-2.094;2023-07-31T00:39:22;100307.73;;;19.22;54.59
73242;BME280;65659;49.234;-2.094;2023-07-31T00:41:47;100307.96;;;19.34;54.77
73242;BME280;65659;49.234;-2.094;2023-07-31T00:44:13;100313.99;;;19.51;54.63
73242;BME280;65659;49.234;-2.094;2023-07-31T00:46:38;100303.95;;;19.66;55.09
73242;BME280;65659;49.234;-2.094;2023-07-31T00:49:04;100298.41;;;19.38;55.21
73242;BME280;65659;49.234;-2.094;2023-07-31T00:51:29;100293.47;;;19.35;55.34
73242;BME280;65659;49.234;-2.094;2023-07-31T00:53:55;100285.23;;;19.29;55.57
73242;BME280;65659;49.234;-2.094;2023-07-31T00:56:20;100296.57;;;19.54;55.42
73242;BME280;65659;49.234;-2.094;2023-07-31T00:58:46;100283.71;;;19.31;55.53
73242;BME280;65659;49.234;-2.094;2023-07-31T01:01:12;100264.22;;;19.50;55.09
73242;BME280;65659;49.234;-2.094;2023-07-31T01:03:37;100249.32;;;19.63;55.20
73242;BME280;65659;49.234;-2.094;2023-07-31T01:06:11;100245.59;;;19.22;55.03
73242;BME280;65659;49.234;-2.094;2023-07-31T01:08:33;100251.39;;;19.46;54.90
73242;BME280;65659;49.234;-2.094;2023-07-31T01:10:58;100250.29;;;19.53;54.71
73242;BME280;65659;49.234;-2.094;2023-07-31T01:13:19;100252.64;;;19.51;54.68
73242;BME280;65659;49.234;-2.094;2023-07-31T01:15:45;100250.05;;;19.29;54.62
73242;BME280;65659;49.234;-2.094;2023-07-31T01:18:10;100243.12;;;19.34;54.54
73242;BME280;65659;49.234;-2.094;2023-07-31T01:20:37;100244.70;;;19.90;54.35
73242;BME280;65659;49.234;-2.094;2023-07-31T01:23:18;100234.18;;;19.77;54.10
73242;BME280;65659;49.234;-2.094;2023-07-31T01:27:57;100223.33;;;19.45;54.20
73242;BME280;65659;49.234;-2.094;2023-07-31T01:30:23;100216.37;;;20.03;54.06
73242;BME280;65659;49.234;-2.094;2023-07-31T01:32:44;100213.83;;;19.83;54.02
73242;BME280;65659;49.234;-2.094;2023-07-31T01:35:09;100214.51;;;20.05;54.11
73242;BME280;65659;49.234;-2.094;2023-07-31T01:37:34;100218.29;;;19.83;54.06
73242;BME280;65659;49.234;-2.094;2023-07-31T01:40:00;100218.79;;;19.78;53.67
73242;BME280;65659;49.234;-2.094;2023-07-31T01:42:25;100215.77;;;19.80;53.50
73242;BME280;65659;49.234;-2.094;2023-07-31T01:44:51;100215.02;;;19.78;53.69
73242;BME280;65659;49.234;-2.094;2023-07-31T01:47:16;100202.76;;;19.87;53.55
73242;BME280;65659;49.234;-2.094;2023-07-31T01:49:42;100193.29;;;20.19;53.38
73242;BME280;65659;49.234;-2.094;2023-07-31T01:52:07;100197.53;;;19.95;53.46
73242;BME280;65659;49.234;-2.094;2023-07-31T01:54:33;100197.42;;;20.25;53.31
73242;BME280;65659;49.234;-2.094;2023-07-31T01:56:58;100193.87;;;20.03;53.28
73242;BME280;65659;49.234;-2.094;2023-07-31T01:59:24;100193.27;;;20.02;53.28
73242;BME280;65659;49.234;-2.094;2023-07-31T02:01:49;100190.90;;;20.08;53.22
73242;BME280;65659;49.234;-2.094;2023-07-31T02:04:15;100182.18;;;20.26;53.33
73242;BME280;65659;49.234;-2.094;2023-07-31T02:06:40;100176.81;;;20.02;53.47
73242;BME280;65659;49.234;-2.094;2023-07-31T02:09:06;100185.10;;;20.23;53.08
73242;BME280;65659;49.234;-2.094;2023-07-31T02:11:31;100173.27;;;20.17;53.14
73242;BME280;65659;49.234;-2.094;2023-07-31T02:13:57;100175.76;;;20.03;52.98
73242;BME280;65659;49.234;-2.094;2023-07-31T02:16:22;100170.44;;;20.23;53.06
73242;BME280;65659;49.234;-2.094;2023-07-31T02:18:48;100162.91;;;20.46;53.17
73242;BME280;65659;49.234;-2.094;2023-07-31T02:21:14;100158.01;;;20.24;53.18
73242;BME280;65659;49.234;-2.094;2023-07-31T02:23:39;100153.25;;;20.35;52.88
73242;BME280;65659;49.234;-2.094;2023-07-31T02:26:05;100153.96;;;20.11;52.83
73242;BME280;65659;49.234;-2.094;2023-07-31T02:28:30;100152.22;;;20.38;52.79
73242;BME280;65659;49.234;-2.094;2023-07-31T02:30:56;100152.79;;;20.28;53.05
73242;BME280;65659;49.234;-2.094;2023-07-31T02:33:21;100149.53;;;20.57;53.00
73242;BME280;65659;49.234;-2.094;2023-07-31T02:35:47;100145.97;;;20.51;53.07
73242;BME280;65659;49.234;-2.094;2023-07-31T02:38:12;100139.51;;;20.30;53.08
73242;BME280;65659;49.234;-2.094;2023-07-31T02:40:39;100135.09;;;20.47;52.74
73242;BME280;65659;49.234;-2.094;2023-07-31T02:43:04;100124.46;;;20.47;52.79
73242;BME280;65659;49.234;-2.094;2023-07-31T02:45:29;100119.29;;;20.35;53.06
73242;BME280;65659;49.234;-2.094;2023-07-31T02:47:55;100117.18;;;20.44;52.95
73242;BME280;65659;49.234;-2.094;2023-07-31T02:50:21;100115.82;;;20.45;53.07
73242;BME280;65659;49.234;-2.094;2023-07-31T02:52:46;100113.72;;;20.47;53.08
73242;BME280;65659;49.234;-2.094;2023-07-31T02:55:11;100105.57;;;20.51;53.09
73242;BME280;65659;49.234;-2.094;2023-07-31T02:57:37;100106.74;;;20.62;52.93
73242;BME280;65659;49.234;-2.094;2023-07-31T03:00:02;100096.30;;;20.46;53.31
73242;BME280;65659;49.234;-2.094;2023-07-31T03:02:27;100089.62;;;20.58;53.22
73242;BME280;65659;49.234;-2.094;2023-07-31T03:04:53;100098.43;;;20.50;53.42
73242;BME280;65659;49.234;-2.094;2023-07-31T03:07:19;100091.10;;;20.64;53.28
73242;BME280;65659;49.234;-2.094;2023-07-31T03:09:45;100089.92;;;20.61;53.42
73242;BME280;65659;49.234;-2.094;2023-07-31T03:12:10;100085.85;;;20.61;53.37
73242;BME280;65659;49.234;-2.094;2023-07-31T03:14:35;100084.46;;;20.68;53.28
73242;BME280;65659;49.234;-2.094;2023-07-31T03:17:01;100086.77;;;20.73;53.26
73242;BME280;65659;49.234;-2.094;2023-07-31T03:19:26;100089.94;;;20.57;53.66
73242;BME280;65659;49.234;-2.094;2023-07-31T03:21:52;100089.73;;;20.60;53.64
73242;BME280;65659;49.234;-2.094;2023-07-31T03:24:17;100094.26;;;20.60;53.59
73242;BME280;65659;49.234;-2.094;2023-07-31T03:26:44;100096.91;;;20.54;53.71
73242;BME280;65659;49.234;-2.094;2023-07-31T03:29:09;100089.69;;;20.67;53.51
73242;BME280;65659;49.234;-2.094;2023-07-31T03:31:34;100086.42;;;20.41;53.67
73242;BME280;65659;49.234;-2.094;2023-07-31T03:34:00;100079.48;;;20.41;53.72
73242;BME280;65659;49.234;-2.094;2023-07-31T03:36:25;100078.31;;;20.51;54.02
73242;BME280;65659;49.234;-2.094;2023-07-31T03:38:52;100080.02;;;20.33;54.42
73242;BME280;65659;49.234;-2.094;2023-07-31T03:41:16;100067.37;;;20.56;54.03
73242;BME280;65659;49.234;-2.094;2023-07-31T03:43:42;100076.95;;;20.43;54.38
73242;BME280;65659;49.234;-2.094;2023-07-31T03:46:08;100072.97;;;20.09;54.68
73242;BME280;65659;49.234;-2.094;2023-07-31T03:48:34;100072.97;;;20.32;54.76
73242;BME280;65659;49.234;-2.094;2023-07-31T03:50:59;100076.31;;;20.09;54.66
73242;BME280;65659;49.234;-2.094;2023-07-31T03:53:25;100070.25;;;20.41;54.48
73242;BME280;65659;49.234;-2.094;2023-07-31T03:55:50;100071.57;;;20.32;54.73
73242;BME280;65659;49.234;-2.094;2023-07-31T03:58:16;100066.13;;;20.49;54.48
73242;BME280;65659;49.234;-2.094;2023-07-31T04:00:41;100064.31;;;20.47;54.48
73242;BME280;65659;49.234;-2.094;2023-07-31T04:03:07;100060.91;;;20.35;54.68
73242;BME280;65659;49.234;-2.094;2023-07-31T04:05:33;100056.75;;;20.54;54.31
73242;BME280;65659;49.234;-2.094;2023-07-31T04:07:58;100055.60;;;20.63;54.16
73242;BME280;65659;49.234;-2.094;2023-07-31T04:10:24;100055.66;;;20.64;54.11
73242;BME280;65659;49.234;-2.094;2023-07-31T04:12:49;100049.25;;;20.58;54.25
73242;BME280;65659;49.234;-2.094;2023-07-31T04:15:15;100043.16;;;20.66;54.20
73242;BME280;65659;49.234;-2.094;2023-07-31T04:17:40;100047.60;;;20.63;54.32
73242;BME280;65659;49.234;-2.094;2023-07-31T04:20:07;100057.47;;;20.73;54.19
73242;BME280;65659;49.234;-2.094;2023-07-31T04:22:32;100060.88;;;20.64;54.31
73242;BME280;65659;49.234;-2.094;2023-07-31T04:24:58;100059.87;;;20.78;54.02
73242;BME280;65659;49.234;-2.094;2023-07-31T04:27:23;100048.36;;;20.76;54.10
73242;BME280;65659;49.234;-2.094;2023-07-31T04:29:49;100039.93;;;20.74;54.14
73242;BME280;65659;49.234;-2.094;2023-07-31T04:32:15;100044.40;;;20.79;54.08
73242;BME280;65659;49.234;-2.094;2023-07-31T04:34:41;100042.61;;;20.60;54.01
73242;BME280;65659;49.234;-2.094;2023-07-31T04:37:06;100037.56;;;20.86;53.97
73242;BME280;65659;49.234;-2.094;2023-07-31T04:39:31;100024.32;;;20.90;54.04
73242;BME280;65659;49.234;-2.094;2023-07-31T04:41:57;100018.31;;;20.80;53.84
73242;BME280;65659;49.234;-2.094;2023-07-31T04:44:22;100016.27;;;20.85;54.30
73242;BME280;65659;49.234;-2.094;2023-07-31T04:46:47;100018.12;;;20.76;54.62
73242;BME280;65659;49.234;-2.094;2023-07-31T04:49:13;100017.49;;;20.76;54.81
73242;BME280;65659;49.234;-2.094;2023-07-31T04:51:39;100017.45;;;20.45;54.98
73242;BME280;65659;49.234;-2.094;2023-07-31T04:54:05;100021.39;;;20.66;55.13
73242;BME280;65659;49.234;-2.094;2023-07-31T04:56:30;100022.63;;;20.60;55.25
73242;BME280;65659;49.234;-2.094;2023-07-31T04:58:56;100023.89;;;20.65;55.24
73242;BME280;65659;49.234;-2.094;2023-07-31T05:01:21;100024.79;;;20.46;55.18
73242;BME280;65659;49.234;-2.094;2023-07-31T05:03:47;100024.83;;;20.76;55.16
73242;BME280;65659;49.234;-2.094;2023-07-31T05:06:13;100021.00;;;20.76;55.18
73242;BME280;65659;49.234;-2.094;2023-07-31T05:08:38;100004.36;;;20.71;55.35
73242;BME280;65659;49.234;-2.094;2023-07-31T05:11:03;100007.29;;;20.33;55.62
73242;BME280;65659;49.234;-2.094;2023-07-31T05:13:29;100001.99;;;20.61;55.60
73242;BME280;65659;49.234;-2.094;2023-07-31T05:15:55;99989.11;;;20.54;55.75
73242;BME280;65659;49.234;-2.094;2023-07-31T05:18:20;99992.49;;;20.35;56.18
73242;BME280;65659;49.234;-2.094;2023-07-31T05:20:46;99990.46;;;20.44;56.08
73242;BME280;65659;49.234;-2.094;2023-07-31T05:23:11;99985.81;;;20.36;56.24
73242;BME280;65659;49.234;-2.094;2023-07-31T05:25:37;99979.48;;;20.32;56.38
73242;BME280;65659;49.234;-2.094;2023-07-31T05:28:03;99988.04;;;20.31;56.46
73242;BME280;65659;49.234;-2.094;2023-07-31T05:30:30;99989.65;;;20.22;56.66
73242;BME280;65659;49.234;-2.094;2023-07-31T05:32:53;99992.97;;;20.40;56.35
73242;BME280;65659;49.234;-2.094;2023-07-31T05:35:18;99987.69;;;20.47;56.22
73242;BME280;65659;49.234;-2.094;2023-07-31T05:37:44;99987.66;;;20.49;56.27
73242;BME280;65659;49.234;-2.094;2023-07-31T05:40:10;99985.33;;;20.42;56.47
73242;BME280;65659;49.234;-2.094;2023-07-31T05:42:35;99984.07;;;20.56;56.19
73242;BME280;65659;49.234;-2.094;2023-07-31T05:45:06;100001.39;;;20.59;56.18
73242;BME280;65659;49.234;-2.094;2023-07-31T05:47:26;99990.51;;;20.43;56.60
73242;BME280;65659;49.234;-2.094;2023-07-31T05:49:52;99982.95;;;20.29;57.00
73242;BME280;65659;49.234;-2.094;2023-07-31T05:52:17;99986.22;;;20.29;57.05
73242;BME280;65659;49.234;-2.094;2023-07-31T05:54:43;99974.94;;;20.25;57.26
73242;BME280;65659;49.234;-2.094;2023-07-31T05:57:09;99970.72;;;19.99;57.77
73242;BME280;65659;49.234;-2.094;2023-07-31T06:02:00;99977.56;;;20.59;57.69
73242;BME280;65659;49.234;-2.094;2023-07-31T06:04:26;99989.62;;;20.08;58.15
73242;BME280;65659;49.234;-2.094;2023-07-31T06:06:52;99983.25;;;20.20;58.52
73242;BME280;65659;49.234;-2.094;2023-07-31T06:09:17;99982.28;;;20.12;58.68
73242;BME280;65659;49.234;-2.094;2023-07-31T06:11:43;99980.73;;;19.76;59.01
73242;BME280;65659;49.234;-2.094;2023-07-31T06:14:09;99977.66;;;19.51;59.10
73242;BME280;65659;49.234;-2.094;2023-07-31T06:16:40;99982.01;;;19.98;59.08
73242;BME280;65659;49.234;-2.094;2023-07-31T06:19:01;99976.87;;;19.82;59.11
73242;BME280;65659;49.234;-2.094;2023-07-31T06:21:26;99972.54;;;20.00;59.22
73242;BME280;65659;49.234;-2.094;2023-07-31T06:23:52;99975.29;;;19.74;59.24
73242;BME280;65659;49.234;-2.094;2023-07-31T06:26:18;99972.34;;;19.72;59.32
73242;BME280;65659;49.234;-2.094;2023-07-31T06:28:44;99971.56;;;19.46;59.53
73242;BME280;65659;49.234;-2.094;2023-07-31T06:31:10;99962.61;;;19.76;59.40
73242;BME280;65659;49.234;-2.094;2023-07-31T06:33:35;99965.56;;;19.69;59.17
73242;BME280;65659;49.234;-2.094;2023-07-31T06:36:00;99969.70;;;20.22;59.11
73242;BME280;65659;49.234;-2.094;2023-07-31T06:38:27;99968.83;;;19.83;59.02
73242;BME280;65659;49.234;-2.094;2023-07-31T06:40:52;99966.29;;;19.80;58.96
73242;BME280;65659;49.234;-2.094;2023-07-31T06:43:17;99965.73;;;20.00;58.72
73242;BME280;65659;49.234;-2.094;2023-07-31T06:45:43;99965.70;;;20.03;58.59
73242;BME280;65659;49.234;-2.094;2023-07-31T06:48:09;99966.85;;;20.11;58.57
73242;BME280;65659;49.234;-2.094;2023-07-31T06:50:35;99964.16;;;20.04;58.62
73242;BME280;65659;49.234;-2.094;2023-07-31T06:53:00;99967.35;;;19.83;58.59
73242;BME280;65659;49.234;-2.094;2023-07-31T06:55:26;99958.53;;;20.06;58.35
73242;BME280;65659;49.234;-2.094;2023-07-31T06:57:54;99960.45;;;19.99;58.38
73242;BME280;65659;49.234;-2.094;2023-07-31T07:00:18;99951.37;;;19.90;58.11
73242;BME280;65659;49.234;-2.094;2023-07-31T07:02:43;99950.00;;;19.84;57.80
73242;BME280;65659;49.234;-2.094;2023-07-31T07:05:09;99945.94;;;19.99;57.48
73242;BME280;65659;49.234;-2.094;2023-07-31T07:07:34;99942.93;;;19.73;57.04
73242;BME280;65659;49.234;-2.094;2023-07-31T07:10:00;99938.30;;;20.32;56.34
73242;BME280;65659;49.234;-2.094;2023-07-31T07:12:26;99931.94;;;20.23;56.50
73242;BME280;65659;49.234;-2.094;2023-07-31T07:14:51;99929.70;;;20.27;56.44
73242;BME280;65659;49.234;-2.094;2023-07-31T07:17:17;99927.61;;;20.27;56.55
73242;BME280;65659;49.234;-2.094;2023-07-31T07:19:43;99930.87;;;20.37;56.35
73242;BME280;65659;49.234;-2.094;2023-07-31T07:22:08;99929.02;;;20.09;56.59
73242;BME280;65659;49.234;-2.094;2023-07-31T07:24:34;99924.41;;;20.30;56.17
73242;BME280;65659;49.234;-2.094;2023-07-31T07:27:00;99930.04;;;20.15;55.99
73242;BME280;65659;49.234;-2.094;2023-07-31T07:29:25;99930.62;;;20.37;55.66
73242;BME280;65659;49.234;-2.094;2023-07-31T07:31:51;99930.11;;;20.81;55.18
73242;BME280;65659;49.234;-2.094;2023-07-31T07:34:16;99929.32;;;21.62;55.49
73242;BME280;65659;49.234;-2.094;2023-07-31T07:36:42;99920.74;;;21.32;57.07
73242;BME280;65659;49.234;-2.094;2023-07-31T07:39:09;99917.76;;;20.83;58.19
73242;BME280;65659;49.234;-2.094;2023-07-31T07:41:33;99919.82;;;20.62;59.24
73242;BME280;65659;49.234;-2.094;2023-07-31T07:44:00;99930.91;;;19.19;59.29
73242;BME280;65659;49.234;-2.094;2023-07-31T07:46:25;99913.12;;;19.43;57.78
73242;BME280;65659;49.234;-2.094;2023-07-31T07:48:50;99912.96;;;19.87;55.93
73242;BME280;65659;49.234;-2.094;2023-07-31T07:51:17;99916.17;;;20.15;55.34
73242;BME280;65659;49.234;-2.094;2023-07-31T07:53:44;99908.75;;;20.26;55.09
73242;BME280;65659;49.234;-2.094;2023-07-31T07:56:08;99905.83;;;20.26;54.54
73242;BME280;65659;49.234;-2.094;2023-07-31T07:58:34;99895.60;;;20.34;54.32
73242;BME280;65659;49.234;-2.094;2023-07-31T08:01:00;99906.84;;;20.29;53.97
73242;BME280;65659;49.234;-2.094;2023-07-31T08:03:26;99895.00;;;20.44;53.53
73242;BME280;65659;49.234;-2.094;2023-07-31T08:05:51;99889.86;;;20.35;53.64
73242;BME280;65659;49.234;-2.094;2023-07-31T08:08:17;99888.82;;;20.42;53.44
73242;BME280;65659;49.234;-2.094;2023-07-31T08:10:42;99893.24;;;20.17;53.98
73242;BME280;65659;49.234;-2.094;2023-07-31T08:13:09;99887.25;;;20.45;53.52
73242;BME280;65659;49.234;-2.094;2023-07-31T08:15:36;99887.66;;;20.29;53.30
73242;BME280;65659;49.234;-2.094;2023-07-31T08:18:00;99889.60;;;20.21;53.42
73242;BME280;65659;49.234;-2.094;2023-07-31T08:20:24;99886.13;;;21.83;53.51
73242;BME280;65659;49.234;-2.094;2023-07-31T08:22:51;99887.33;;;21.39;55.80
73242;BME280;65659;49.234;-2.094;2023-07-31T08:25:21;99884.01;;;19.96;55.68
73242;BME280;65659;49.234;-2.094;2023-07-31T08:27:44;99881.29;;;20.24;54.57
73242;BME280;65659;49.234;-2.094;2023-07-31T08:30:18;99878.66;;;21.09;53.86
73242;BME280;65659;49.234;-2.094;2023-07-31T08:32:39;99881.04;;;20.43;53.72
73242;BME280;65659;49.234;-2.094;2023-07-31T08:35:04;99881.90;;;20.64;53.39
73242;BME280;65659;49.234;-2.094;2023-07-31T08:37:25;99883.06;;;20.94;52.82
73242;BME280;65659;49.234;-2.094;2023-07-31T08:39:51;99879.60;;;21.20;52.27
73242;BME280;65659;49.234;-2.094;2023-07-31T08:42:17;99877.30;;;20.87;52.52
73242;BME280;65659;49.234;-2.094;2023-07-31T08:44:43;99878.50;;;21.66;52.26
73242;BME280;65659;49.234;-2.094;2023-07-31T08:47:07;99881.46;;;22.39;53.49
73242;BME280;65659;49.234;-2.094;2023-07-31T08:49:34;99882.28;;;21.66;55.56
73242;BME280;65659;49.234;-2.094;2023-07-31T08:52:00;99883.53;;;21.29;57.35
73242;BME280;65659;49.234;-2.094;2023-07-31T08:54:24;99883.64;;;20.70;58.72
73242;BME280;65659;49.234;-2.094;2023-07-31T08:56:50;99892.53;;;20.81;59.09
73242;BME280;65659;49.234;-2.094;2023-07-31T08:59:16;99887.21;;;20.36;59.60
73242;BME280;65659;49.234;-2.094;2023-07-31T09:01:44;99884.35;;;20.72;59.54
73242;BME280;65659;49.234;-2.094;2023-07-31T09:04:08;99885.76;;;20.53;59.92
73242;BME280;65659;49.234;-2.094;2023-07-31T09:06:33;99881.94;;;19.46;58.26
73242;BME280;65659;49.234;-2.094;2023-07-31T09:09:04;99874.15;;;19.91;56.31
73242;BME280;65659;49.234;-2.094;2023-07-31T09:11:32;99878.81;;;21.15;55.58
73242;BME280;65659;49.234;-2.094;2023-07-31T09:13:50;99878.79;;;21.68;56.38
73242;BME280;65659;49.234;-2.094;2023-07-31T09:16:34;99878.44;;;20.64;57.63
73242;BME280;65659;49.234;-2.094;2023-07-31T09:18:56;99869.59;;;19.78;57.15
73242;BME280;65659;49.234;-2.094;2023-07-31T09:21:06;99861.45;;;21.31;55.50
73242;BME280;65659;49.234;-2.094;2023-07-31T09:23:42;99855.36;;;21.69;56.63
73242;BME280;65659;49.234;-2.094;2023-07-31T09:26:04;99844.53;;;19.79;56.86
73242;BME280;65659;49.234;-2.094;2023-07-31T09:28:36;99828.92;;;19.96;55.68
73242;BME280;65659;49.234;-2.094;2023-07-31T09:30:51;99825.06;;;20.56;54.45
73242;BME280;65659;49.234;-2.094;2023-07-31T09:33:18;99826.54;;;20.31;53.98
73242;BME280;65659;49.234;-2.094;2023-07-31T09:35:41;99824.06;;;20.45;53.59
73242;BME280;65659;49.234;-2.094;2023-07-31T09:38:12;99826.93;;;21.05;53.38
73242;BME280;65659;49.234;-2.094;2023-07-31T09:40:48;99829.13;;;21.05;53.48
73242;BME280;65659;49.234;-2.094;2023-07-31T09:45:23;99834.34;;;20.38;53.89
73242;BME280;65659;49.234;-2.094;2023-07-31T09:47:52;99834.87;;;20.82;53.52
73242;BME280;65659;49.234;-2.094;2023-07-31T09:50:16;99835.67;;;20.78;53.40
73242;BME280;65659;49.234;-2.094;2023-07-31T09:52:41;99833.00;;;20.94;53.16
73242;BME280;65659;49.234;-2.094;2023-07-31T09:55:13;99835.09;;;21.84;52.76
73242;BME280;65659;49.234;-2.094;2023-07-31T09:57:36;99841.53;;;20.99;53.04
73242;BME280;65659;49.234;-2.094;2023-07-31T10:00:02;99837.83;;;21.64;52.68
73242;BME280;65659;49.234;-2.094;2023-07-31T10:02:27;99834.67;;;21.31;52.84
73242;BME280;65659;49.234;-2.094;2023-07-31T10:05:02;99831.77;;;21.26;52.92
73242;BME280;65659;49.234;-2.094;2023-07-31T10:07:20;99824.03;;;21.11;52.80
73242;BME280;65659;49.234;-2.094;2023-07-31T10:09:51;99810.10;;;21.00;52.75
73242;BME280;65659;49.234;-2.094;2023-07-31T10:12:33;99814.18;;;21.63;52.59
73242;BME280;65659;49.234;-2.094;2023-07-31T10:14:51;99833.42;;;21.66;52.52
73242;BME280;65659;49.234;-2.094;2023-07-31T10:16:58;99823.86;;;21.64;52.52
73242;BME280;65659;49.234;-2.094;2023-07-31T10:19:46;99832.85;;;21.39;52.42
73242;BME280;65659;49.234;-2.094;2023-07-31T10:24:21;99825.35;;;21.36;52.55
73242;BME280;65659;49.234;-2.094;2023-07-31T10:26:40;99829.07;;;21.76;52.23
73242;BME280;65659;49.234;-2.094;2023-07-31T10:31:29;99829.22;;;22.90;54.02
73242;BME280;65659;49.234;-2.094;2023-07-31T10:33:55;99818.75;;;22.61;55.73
73242;BME280;65659;49.234;-2.094;2023-07-31T10:36:20;99819.60;;;21.90;56.98
73242;BME280;65659;49.234;-2.094;2023-07-31T10:38:49;99823.80;;;20.45;56.25
73242;BME280;65659;49.234;-2.094;2023-07-31T10:41:11;99812.46;;;22.38;54.33
73242;BME280;65659;49.234;-2.094;2023-07-31T10:43:39;99818.68;;;21.09;55.23
73242;BME280;65659;49.234;-2.094;2023-07-31T10:46:07;99827.11;;;22.11;55.15
73242;BME280;65659;49.234;-2.094;2023-07-31T10:48:34;99828.58;;;22.16;55.97
73242;BME280;65659;49.234;-2.094;2023-07-31T10:50:56;99836.71;;;22.15;57.12
73242;BME280;65659;49.234;-2.094;2023-07-31T10:53:24;99838.22;;;21.73;58.15
73242;BME280;65659;49.234;-2.094;2023-07-31T10:55:49;99826.87;;;21.74;58.37
73242;BME280;65659;49.234;-2.094;2023-07-31T10:58:18;99835.87;;;20.52;57.15
73242;BME280;65659;49.234;-2.094;2023-07-31T11:00:56;99834.47;;;21.10;55.44
73242;BME280;65659;49.234;-2.094;2023-07-31T11:10:34;99832.92;;;22.21;53.85
73242;BME280;65659;49.234;-2.094;2023-07-31T11:12:56;99835.57;;;22.14;53.77
73242;BME280;65659;49.234;-2.094;2023-07-31T11:17:49;99838.21;;;21.47;53.84
73242;BME280;65659;49.234;-2.094;2023-07-31T11:20:31;99831.96;;;22.05;53.59
73242;BME280;65659;49.234;-2.094;2023-07-31T11:22:40;99812.92;;;21.61;53.20
73242;BME280;65659;49.234;-2.094;2023-07-31T11:25:03;99821.71;;;21.70;52.80
73242;BME280;65659;49.234;-2.094;2023-07-31T11:27:29;99825.93;;;21.86;52.39
73242;BME280;65659;49.234;-2.094;2023-07-31T11:29:52;99815.81;;;22.09;52.39
73242;BME280;65659;49.234;-2.094;2023-07-31T11:32:35;99813.49;;;22.05;52.37
73242;BME280;65659;49.234;-2.094;2023-07-31T11:34:56;99809.76;;;21.98;52.99
73242;BME280;65659;49.234;-2.094;2023-07-31T11:37:15;99811.00;;;22.40;53.26
73242;BME280;65659;49.234;-2.094;2023-07-31T11:39:36;99810.07;;;22.15;53.35
73242;BME280;65659;49.234;-2.094;2023-07-31T11:44:23;99818.71;;;21.66;53.83
73242;BME280;65659;49.234;-2.094;2023-07-31T11:46:45;99806.00;;;21.53;53.49
73242;BME280;65659;49.234;-2.094;2023-07-31T11:49:11;99800.64;;;21.75;53.20
73242;BME280;65659;49.234;-2.094;2023-07-31T11:51:38;99790.88;;;21.70;52.74
73242;BME280;65659;49.234;-2.094;2023-07-31T11:54:03;99791.39;;;21.57;52.86
73242;BME280;65659;49.234;-2.094;2023-07-31T11:56:30;99798.59;;;21.67;52.71
73242;BME280;65659;49.234;-2.094;2023-07-31T11:58:59;99794.64;;;21.65;52.66
73242;BME280;65659;49.234;-2.094;2023-07-31T12:01:23;99788.52;;;21.85;52.32
73242;BME280;65659;49.234;-2.094;2023-07-31T12:03:51;99793.07;;;21.83;52.79
73242;BME280;65659;49.234;-2.094;2023-07-31T12:06:16;99772.48;;;21.95;52.57
73242;BME280;65659;49.234;-2.094;2023-07-31T12:08:48;99775.17;;;22.27;52.83
73242;BME280;65659;49.234;-2.094;2023-07-31T12:11:11;99775.16;;;21.68;52.98
73242;BME280;65659;49.234;-2.094;2023-07-31T12:13:30;99760.01;;;21.71;52.95
73242;BME280;65659;49.234;-2.094;2023-07-31T12:15:55;99758.47;;;23.07;53.41
73242;BME280;65659;49.234;-2.094;2023-07-31T12:18:21;99759.29;;;22.44;55.55
73242;BME280;65659;49.234;-2.094;2023-07-31T12:20:56;99757.67;;;20.76;55.64
73242;BME280;65659;49.234;-2.094;2023-07-31T12:23:16;99750.59;;;20.98;54.17
73242;BME280;65659;49.234;-2.094;2023-07-31T12:26:03;99741.68;;;22.15;53.68
73242;BME280;65659;49.234;-2.094;2023-07-31T12:28:08;99741.99;;;22.14;53.45
73242;BME280;65659;49.234;-2.094;2023-07-31T12:30:29;99743.40;;;22.25;54.12
73242;BME280;65659;49.234;-2.094;2023-07-31T12:32:54;99735.81;;;22.49;55.28
73242;BME280;65659;49.234;-2.094;2023-07-31T12:35:19;99737.18;;;20.44;55.68
73242;BME280;65659;49.234;-2.094;2023-07-31T12:37:46;99740.54;;;20.67;54.56
73242;BME280;65659;49.234;-2.094;2023-07-31T12:40:12;99743.76;;;21.23;54.01
73242;BME280;65659;49.234;-2.094;2023-07-31T12:42:37;99732.55;;;20.97;53.66
73242;BME280;65659;49.234;-2.094;2023-07-31T12:45:03;99741.11;;;21.09;53.40
73242;BME280;65659;49.234;-2.094;2023-07-31T12:47:25;99745.03;;;22.49;54.26
73242;BME280;65659;49.234;-2.094;2023-07-31T12:49:51;99738.34;;;22.09;56.75
73242;BME280;65659;49.234;-2.094;2023-07-31T12:52:20;99728.80;;;20.38;56.60
73242;BME280;65659;49.234;-2.094;2023-07-31T12:54:47;99726.27;;;20.87;55.19
73242;BME280;65659;49.234;-2.094;2023-07-31T12:57:10;99716.99;;;21.29;53.88
73242;BME280;65659;49.234;-2.094;2023-07-31T12:59:38;99736.13;;;20.96;54.00